createdAt,value
2015-03-07T07:07:13.671Z,102103
2015-03-07T07:07:25.664Z,102103
2015-03-07T07:07:37.620Z,102097
2015-03-07T07:07:56.269Z,102100
2015-03-07T07:08:08.271Z,102089
2015-03-07T07:08:20.225Z,102100
2015-03-07T07:08:38.890Z,102083
2015-03-07T07:08:57.569Z,102089
2015-03-07T07:09:09.531Z,102097
2015-03-07T07:09:21.472Z,102086
2015-03-07T07:09:40.075Z,102095
2015-03-07T07:09:52.138Z,102095
2015-03-07T07:10:04.144Z,102077
2015-03-07T07:10:16.152Z,102086
2015-03-07T07:10:28.148Z,102083
2015-03-07T07:10:40.198Z,102092
2015-03-07T07:10:52.195Z,102094
2015-03-07T07:11:04.234Z,102089
2015-03-07T07:11:16.247Z,102092
2015-03-07T07:11:28.246Z,102097
2015-03-07T07:11:40.257Z,102089
2015-03-07T07:12:05.528Z,102089
2015-03-07T07:12:17.537Z,102106
2015-03-07T07:12:29.551Z,102095
2015-03-07T07:12:41.462Z,102100
2015-03-07T07:12:53.421Z,102100
2015-03-07T07:13:12.023Z,102103
2015-03-07T07:13:24.090Z,102097
2015-03-07T07:13:36.073Z,102100
2015-03-07T07:13:54.732Z,102106
2015-03-07T07:14:06.703Z,102118
2015-03-07T07:14:25.324Z,102115
2015-03-07T07:14:37.352Z,102103
2015-03-07T07:14:49.272Z,102106
2015-03-07T07:15:01.233Z,102109
2015-03-07T07:15:13.281Z,102100
2015-03-07T07:15:25.221Z,102109
2015-03-07T07:15:37.149Z,102109
2015-03-07T07:15:55.822Z,102100
2015-03-07T07:16:07.852Z,102106
2015-03-07T07:16:19.885Z,102100
2015-03-07T07:16:31.863Z,102106
2015-03-07T07:16:43.809Z,102109
2015-03-07T07:16:55.783Z,102100
2015-03-07T07:17:07.835Z,102106
2015-03-07T07:17:19.785Z,102109
2015-03-07T07:17:31.742Z,102103
2015-03-07T07:17:43.754Z,102106
2015-03-07T07:18:08.988Z,102106
2015-03-07T07:18:27.565Z,102103
2015-03-07T07:18:39.569Z,102106
2015-03-07T07:18:58.167Z,102112
2015-03-07T07:19:10.229Z,102109
2015-03-07T07:19:28.831Z,102111
2015-03-07T07:19:54.106Z,102102
2015-03-07T07:20:06.548Z,102096
2015-03-07T07:20:18.597Z,102099
2015-03-07T07:20:30.595Z,102102
2015-03-07T07:20:49.243Z,102096
2015-03-07T07:21:14.547Z,102102
2015-03-07T07:21:26.500Z,102102
2015-03-07T07:21:41.744Z,102093
2015-03-07T07:21:54.200Z,102099
2015-03-07T07:22:06.231Z,102101
2015-03-07T07:22:18.259Z,102104
2015-03-07T07:22:36.782Z,102095
2015-03-07T07:22:48.787Z,102098
2015-03-07T07:23:00.812Z,102090
2015-03-07T07:23:12.834Z,102087
2015-03-07T07:23:24.793Z,102092
2015-03-07T07:23:36.766Z,102095
2015-03-07T07:23:48.800Z,102081
2015-03-07T07:24:00.825Z,102087
2015-03-07T07:24:12.801Z,102095
2015-03-07T07:24:24.848Z,102089
2015-03-07T07:24:43.479Z,102092
2015-03-07T07:24:55.447Z,102089
2015-03-07T07:25:20.660Z,102086
2015-03-07T07:25:32.615Z,102092
2015-03-07T07:25:44.637Z,102092
2015-03-07T07:25:56.623Z,102095
2015-03-07T07:26:08.643Z,102095
2015-03-07T07:26:20.711Z,102098
2015-03-07T07:26:32.758Z,102098
2015-03-07T07:26:51.330Z,102089
2015-03-07T07:27:03.307Z,102095
2015-03-07T07:27:15.300Z,102092
2015-03-07T07:27:27.256Z,102101
2015-03-07T07:27:39.197Z,102089
2015-03-07T07:27:51.217Z,102098
2015-03-07T07:28:03.186Z,102095
2015-03-07T07:28:21.769Z,102092
2015-03-07T07:28:33.748Z,102098
2015-03-07T07:28:45.772Z,102093
2015-03-07T07:28:57.749Z,102087
2015-03-07T07:29:09.747Z,102078
2015-03-07T07:29:21.722Z,102093
2015-03-07T07:29:33.681Z,102090
2015-03-07T07:29:52.291Z,102090
2015-03-07T07:30:04.234Z,102104
2015-03-07T07:30:16.319Z,102093
2015-03-07T07:30:28.350Z,102087
2015-03-07T07:30:40.405Z,102096
2015-03-07T07:30:52.418Z,102093
2015-03-07T07:31:04.460Z,102093
2015-03-07T07:31:16.465Z,102088
2015-03-07T07:31:35.149Z,102096
2015-03-07T07:31:47.112Z,102091
2015-03-07T07:31:59.131Z,102088
2015-03-07T07:32:11.099Z,102099
2015-03-07T07:32:23.139Z,102094
2015-03-07T07:32:35.104Z,102094
2015-03-07T07:32:47.120Z,102091
2015-03-07T07:32:59.107Z,102097
2015-03-07T07:33:11.085Z,102102
2015-03-07T07:33:29.688Z,102100
2015-03-07T07:33:48.322Z,102100
2015-03-07T07:35:01.924Z,102103
2015-03-07T07:35:20.510Z,102094
2015-03-07T07:35:32.508Z,102094
2015-03-07T07:35:44.469Z,102085
2015-03-07T07:35:56.520Z,102100
2015-03-07T07:36:08.503Z,102085
2015-03-07T07:36:20.522Z,102097
2015-03-07T07:36:32.550Z,102100
2015-03-07T07:36:44.559Z,102103
2015-03-07T07:37:03.205Z,102091
2015-03-07T07:37:15.146Z,102083
2015-03-07T07:37:27.189Z,102086
2015-03-07T07:37:45.858Z,102103
2015-03-07T07:37:57.964Z,102091
2015-03-07T07:38:09.967Z,102086
2015-03-07T07:38:21.972Z,102094
2015-03-07T07:38:33.981Z,102089
2015-03-07T07:38:45.931Z,102089
2015-03-07T07:38:57.870Z,102094
2015-03-07T07:39:09.892Z,102086
2015-03-07T07:39:21.840Z,102094
2015-03-07T07:39:40.467Z,102086
2015-03-07T07:39:59.108Z,102089
2015-03-07T07:40:12.330Z,102083
2015-03-07T07:40:24.755Z,102094
2015-03-07T07:40:36.727Z,102092
2015-03-07T07:40:48.712Z,102089
2015-03-07T07:41:00.654Z,102089
2015-03-07T07:41:19.215Z,102077
2015-03-07T07:41:37.804Z,102086
2015-03-07T07:41:49.774Z,102095
2015-03-07T07:42:01.795Z,102095
2015-03-07T07:42:20.399Z,102089
2015-03-07T07:42:32.385Z,102097
2015-03-07T07:42:50.979Z,102092
2015-03-07T07:43:02.922Z,102095
2015-03-07T07:43:21.456Z,102083
2015-03-07T07:43:33.512Z,102092
2015-03-07T07:43:45.482Z,102086
2015-03-07T07:43:57.459Z,102086
2015-03-07T07:44:09.542Z,102083
2015-03-07T07:44:21.491Z,102086
2015-03-07T07:44:33.528Z,102086
2015-03-07T07:44:52.093Z,102092
2015-03-07T07:45:04.069Z,102092
2015-03-07T07:45:16.042Z,102083
2015-03-07T07:45:34.664Z,102089
2015-03-07T07:45:53.242Z,102083
2015-03-07T07:46:11.821Z,102086
2015-03-07T07:46:23.831Z,102089
2015-03-07T07:46:35.772Z,102089
2015-03-07T07:46:47.811Z,102077
2015-03-07T07:46:59.882Z,102089
2015-03-07T07:47:18.426Z,102086
2015-03-07T07:47:33.393Z,102092
2015-03-07T07:47:45.474Z,102086
2015-03-07T07:47:57.354Z,102089
2015-03-07T07:48:09.393Z,102086
2015-03-07T07:48:21.425Z,102086
2015-03-07T07:48:33.368Z,102092
2015-03-07T07:48:45.297Z,102077
2015-03-07T07:48:57.276Z,102089
2015-03-07T07:49:09.263Z,102083
2015-03-07T07:49:21.230Z,102080
2015-03-07T07:49:33.199Z,102080
2015-03-07T07:49:51.851Z,102083
2015-03-07T07:50:10.449Z,102075
2015-03-07T07:50:22.436Z,102075
2015-03-07T07:50:34.413Z,102072
2015-03-07T07:50:46.448Z,102066
2015-03-07T07:51:05.003Z,102075
2015-03-07T07:51:17.034Z,102069
2015-03-07T07:51:29.014Z,102075
2015-03-07T07:51:40.991Z,102075
2015-03-07T07:51:52.944Z,102063
2015-03-07T07:52:04.958Z,102075
2015-03-07T07:52:16.940Z,102069
2015-03-07T07:52:28.894Z,102069
2015-03-07T07:52:40.910Z,102069
2015-03-07T07:52:52.855Z,102063
2015-03-07T07:53:04.798Z,102066
2015-03-07T07:53:16.758Z,102063
2015-03-07T07:53:28.716Z,102072
2015-03-07T07:53:40.708Z,102072
2015-03-07T07:53:59.347Z,102080
2015-03-07T07:54:17.959Z,102072
2015-03-07T07:54:29.908Z,102072
2015-03-07T07:54:41.893Z,102072
2015-03-07T07:55:00.443Z,102066
2015-03-07T07:55:12.482Z,102078
2015-03-07T07:55:31.127Z,102066
2015-03-07T07:55:43.124Z,102078
2015-03-07T07:55:55.089Z,102063
2015-03-07T07:56:07.085Z,102075
2015-03-07T07:56:19.119Z,102066
2015-03-07T07:56:44.390Z,102063
2015-03-07T07:56:56.353Z,102066
2015-03-07T07:57:08.320Z,102069
2015-03-07T07:57:20.283Z,102083
2015-03-07T07:57:32.267Z,102066
2015-03-07T07:57:44.215Z,102072
2015-03-07T07:58:02.814Z,102078
2015-03-07T07:58:14.853Z,102075
2015-03-07T07:58:26.838Z,102069
2015-03-07T07:58:38.867Z,102078
2015-03-07T07:58:50.875Z,102072
2015-03-07T07:59:09.571Z,102066
2015-03-07T07:59:21.491Z,102072
2015-03-07T07:59:33.440Z,102066
2015-03-07T07:59:45.398Z,102075
2015-03-07T07:59:57.349Z,102069
2015-03-07T08:00:09.351Z,102066
2015-03-07T08:00:21.304Z,102069
2015-03-07T08:00:33.283Z,102069
2015-03-07T08:00:45.221Z,102063
2015-03-07T08:00:57.222Z,102078
2015-03-07T08:01:09.197Z,102075
2015-03-07T08:01:21.200Z,102080
2015-03-07T08:01:39.774Z,102069
2015-03-07T08:01:58.442Z,102081
2015-03-07T08:02:23.614Z,102083
2015-03-07T08:02:42.220Z,102081
2015-03-07T08:02:54.194Z,102075
2015-03-07T08:03:06.137Z,102081
2015-03-07T08:03:18.166Z,102083
2015-03-07T08:03:30.146Z,102081
2015-03-07T08:03:42.188Z,102072
2015-03-07T08:03:54.187Z,102072
2015-03-07T08:04:12.840Z,102066
2015-03-07T08:04:24.833Z,102078
2015-03-07T08:04:36.876Z,102078
2015-03-07T08:04:48.947Z,102086
2015-03-07T08:05:01.024Z,102081
2015-03-07T08:05:13.048Z,102086
2015-03-07T08:05:25.088Z,102084
2015-03-07T08:05:43.744Z,102081
2015-03-07T08:06:08.949Z,102084
2015-03-07T08:06:27.529Z,102084
2015-03-07T08:06:39.556Z,102078
2015-03-07T08:06:58.164Z,102084
2015-03-07T08:07:16.700Z,102075
2015-03-07T08:07:28.703Z,102081
2015-03-07T08:07:47.352Z,102075
2015-03-07T08:08:05.961Z,102078
2015-03-07T08:08:17.975Z,102084
2015-03-07T08:08:29.959Z,102066
2015-03-07T08:08:41.939Z,102075
2015-03-07T08:08:53.927Z,102066
2015-03-07T08:09:12.520Z,102084
2015-03-07T08:09:24.475Z,102075
2015-03-07T08:09:49.746Z,102072
2015-03-07T08:10:01.743Z,102072
2015-03-07T08:10:13.738Z,102087
2015-03-07T08:10:25.682Z,102075
2015-03-07T08:10:37.606Z,102075
2015-03-07T08:10:56.191Z,102078
2015-03-07T08:11:08.191Z,102075
2015-03-07T08:11:20.169Z,102078
2015-03-07T08:11:38.714Z,102078
2015-03-07T08:11:57.338Z,102087
2015-03-07T08:12:09.346Z,102087
2015-03-07T08:12:21.329Z,102084
2015-03-07T08:12:33.361Z,102078
2015-03-07T08:12:45.341Z,102081
2015-03-07T08:12:57.356Z,102084
2015-03-07T08:13:09.330Z,102073
2015-03-07T08:13:28.003Z,102090
2015-03-07T08:13:40.024Z,102078
2015-03-07T08:13:52.004Z,102081
2015-03-07T08:14:04.023Z,102084
2015-03-07T08:14:16.012Z,102075
2015-03-07T08:14:27.996Z,102076
2015-03-07T08:14:39.931Z,102096
2015-03-07T08:14:51.958Z,102084
2015-03-07T08:15:03.953Z,102090
2015-03-07T08:15:15.895Z,102078
2015-03-07T08:15:34.551Z,102081
2015-03-07T08:15:46.566Z,102070
2015-03-07T08:15:58.538Z,102078
2015-03-07T08:16:10.550Z,102081
2015-03-07T08:16:22.556Z,102075
2015-03-07T08:16:47.773Z,102078
2015-03-07T08:16:59.848Z,102081
2015-03-07T08:17:11.825Z,102078
2015-03-07T08:17:23.807Z,102087
2015-03-07T08:17:42.379Z,102075
2015-03-07T08:18:01.021Z,102081
2015-03-07T08:18:13.031Z,102067
2015-03-07T08:18:25.033Z,102073
2015-03-07T08:18:37.095Z,102070
2015-03-07T08:18:49.094Z,102073
2015-03-07T08:19:01.077Z,102070
2015-03-07T08:19:13.010Z,102076
2015-03-07T08:19:24.988Z,102078
2015-03-07T08:19:36.981Z,102084
2015-03-07T08:19:49.011Z,102070
2015-03-07T08:20:01.047Z,102073
2015-03-07T08:20:26.266Z,102073
2015-03-07T08:20:38.332Z,102076
2015-03-07T08:20:50.312Z,102081
2015-03-07T08:21:02.367Z,102067
2015-03-07T08:21:14.357Z,102078
2015-03-07T08:21:26.377Z,102073
2015-03-07T08:21:51.579Z,102070
2015-03-07T08:22:03.630Z,102076
2015-03-07T08:22:15.703Z,102081
2015-03-07T08:22:27.670Z,102058
2015-03-07T08:22:39.717Z,102076
2015-03-07T08:22:58.278Z,102070
2015-03-07T08:23:10.348Z,102064
2015-03-07T08:23:28.904Z,102078
2015-03-07T08:23:47.511Z,102064
2015-03-07T08:23:59.467Z,102078
2015-03-07T08:24:11.427Z,102076
2015-03-07T08:24:23.392Z,102073
2015-03-07T08:24:35.416Z,102070
2015-03-07T08:24:47.349Z,102070
2015-03-07T08:24:59.337Z,102075
2015-03-07T08:25:11.272Z,102075
2015-03-07T08:25:23.262Z,102075
2015-03-07T08:25:41.848Z,102073
2015-03-07T08:25:53.883Z,102061
2015-03-07T08:26:05.873Z,102067
2015-03-07T08:26:24.475Z,102061
2015-03-07T08:26:36.492Z,102061
2015-03-07T08:26:48.501Z,102064
2015-03-07T08:27:00.444Z,102070
2015-03-07T08:27:12.425Z,102073
2015-03-07T08:27:24.376Z,102055
2015-03-07T08:27:42.941Z,102061
2015-03-07T08:27:54.935Z,102061
2015-03-07T08:28:06.935Z,102078
2015-03-07T08:28:18.893Z,102067
2015-03-07T08:28:30.847Z,102058
2015-03-07T08:28:42.848Z,102070
2015-03-07T08:28:54.854Z,102073
2015-03-07T08:29:06.790Z,102064
2015-03-07T08:29:18.783Z,102058
2015-03-07T08:29:34.426Z,102058
2015-03-07T08:29:46.398Z,102067
2015-03-07T08:30:05.035Z,102064
2015-03-07T08:30:17.029Z,102064
2015-03-07T08:30:29.049Z,102058
2015-03-07T08:30:41.064Z,102061
2015-03-07T08:30:59.614Z,102064
2015-03-07T08:31:18.184Z,102055
2015-03-07T08:31:30.110Z,102058
2015-03-07T08:31:42.062Z,102055
2015-03-07T08:32:00.696Z,102053
2015-03-07T08:32:12.654Z,102064
2015-03-07T08:32:24.682Z,102058
2015-03-07T08:32:36.651Z,102053
2015-03-07T08:32:48.718Z,102064
2015-03-07T08:33:00.655Z,102061
2015-03-07T08:33:19.255Z,102055
2015-03-07T08:33:31.250Z,102055
2015-03-07T08:33:56.444Z,102044
2015-03-07T08:34:08.437Z,102058
2015-03-07T08:34:20.478Z,102052
2015-03-07T08:34:32.446Z,102055
2015-03-07T08:34:44.444Z,102055
2015-03-07T08:35:03.003Z,102055
2015-03-07T08:35:14.942Z,102052
2015-03-07T08:35:26.853Z,102067
2015-03-07T08:35:38.857Z,102058
2015-03-07T08:35:50.851Z,102067
2015-03-07T08:36:02.847Z,102058
2015-03-07T08:36:14.894Z,102061
2015-03-07T08:36:26.799Z,102058
2015-03-07T08:36:38.813Z,102061
2015-03-07T08:36:50.799Z,102055
2015-03-07T08:37:09.418Z,102064
2015-03-07T08:37:21.359Z,102064
2015-03-07T08:37:33.301Z,102055
2015-03-07T08:37:45.235Z,102064
2015-03-07T08:38:03.899Z,102055
2015-03-07T08:38:15.900Z,102055
2015-03-07T08:38:27.844Z,102058
2015-03-07T08:38:46.472Z,102061
2015-03-07T08:38:58.412Z,102055
2015-03-07T08:39:17.002Z,102058
2015-03-07T08:39:29.003Z,102073
2015-03-07T08:39:40.971Z,102058
2015-03-07T08:39:59.593Z,102067
2015-03-07T08:40:11.611Z,102058
2015-03-07T08:40:23.690Z,102064
2015-03-07T08:40:35.683Z,102061
2015-03-07T08:41:00.929Z,102073
2015-03-07T08:41:12.927Z,102058
2015-03-07T08:41:24.803Z,102058
2015-03-07T08:41:36.746Z,102076
2015-03-07T08:41:48.726Z,102061
2015-03-07T08:42:00.726Z,102061
2015-03-07T08:42:12.760Z,102061
2015-03-07T08:42:31.321Z,102067
2015-03-07T08:42:43.349Z,102064
2015-03-07T08:43:01.941Z,102053
2015-03-07T08:43:13.966Z,102061
2015-03-07T08:43:32.595Z,102055
2015-03-07T08:43:44.568Z,102061
2015-03-07T08:43:56.525Z,102067
2015-03-07T08:44:08.503Z,102064
2015-03-07T08:44:27.156Z,102058
2015-03-07T08:44:39.137Z,102067
2015-03-07T08:44:51.180Z,102061
2015-03-07T08:45:03.176Z,102064
2015-03-07T08:45:15.204Z,102067
2015-03-07T08:45:27.176Z,102055
2015-03-07T08:45:45.808Z,102064
2015-03-07T08:45:58.324Z,102055
2015-03-07T08:46:10.351Z,102053
2015-03-07T08:46:22.394Z,102064
2015-03-07T08:46:34.400Z,102058
2015-03-07T08:46:46.332Z,102073
2015-03-07T08:46:58.274Z,102078
2015-03-07T08:47:10.282Z,102070
2015-03-07T08:47:22.263Z,102070
2015-03-07T08:47:34.258Z,102073
2015-03-07T08:47:46.230Z,102073
2015-03-07T08:47:58.179Z,102067
2015-03-07T08:48:23.478Z,102070
2015-03-07T08:48:35.446Z,102064
2015-03-07T08:48:47.462Z,102073
2015-03-07T08:48:59.437Z,102070
2015-03-07T08:49:11.443Z,102076
2015-03-07T08:49:23.448Z,102087
2015-03-07T08:49:35.468Z,102079
2015-03-07T08:49:47.541Z,102067
2015-03-07T08:49:59.578Z,102067
2015-03-07T08:50:11.505Z,102070
2015-03-07T08:50:23.468Z,102061
2015-03-07T08:50:48.730Z,102076
2015-03-07T08:51:00.716Z,102073
2015-03-07T08:51:12.661Z,102061
2015-03-07T08:51:24.668Z,102070
2015-03-07T08:51:36.715Z,102067
2015-03-07T08:51:48.708Z,102070
2015-03-07T08:52:00.730Z,102064
2015-03-07T08:52:19.311Z,102064
2015-03-07T08:52:31.311Z,102070
2015-03-07T08:52:43.377Z,102070
2015-03-07T08:52:55.391Z,102070
2015-03-07T08:53:07.482Z,102076
2015-03-07T08:53:19.476Z,102070
2015-03-07T08:53:31.479Z,102070
2015-03-07T08:53:43.453Z,102067
2015-03-07T08:53:55.459Z,102070
2015-03-07T08:54:07.443Z,102067
2015-03-07T08:54:19.447Z,102073
2015-03-07T08:54:38.017Z,102090
2015-03-07T08:54:49.992Z,102078
2015-03-07T08:55:08.637Z,102067
2015-03-07T08:55:20.618Z,102064
2015-03-07T08:55:32.631Z,102073
2015-03-07T08:55:44.623Z,102064
2015-03-07T08:56:09.815Z,102084
2015-03-07T08:56:28.448Z,102073
2015-03-07T08:56:47.071Z,102081
2015-03-07T08:56:59.076Z,102081
2015-03-07T08:57:11.090Z,102073
2015-03-07T08:57:23.039Z,102073
2015-03-07T08:57:35.045Z,102081
2015-03-07T08:57:47.013Z,102076
2015-03-07T08:57:58.945Z,102079
2015-03-07T08:58:17.592Z,102076
2015-03-07T08:58:36.143Z,102087
2015-03-07T08:58:48.122Z,102084
2015-03-07T08:59:00.162Z,102084
2015-03-07T08:59:12.181Z,102084
2015-03-07T08:59:24.133Z,102079
2015-03-07T08:59:36.081Z,102073
2015-03-07T08:59:48.051Z,102084
2015-03-07T09:00:00.016Z,102090
2015-03-07T09:00:11.988Z,102090
2015-03-07T09:00:24.075Z,102087
2015-03-07T09:00:36.098Z,102087
2015-03-07T09:00:48.050Z,102087
2015-03-07T09:01:00.063Z,102090
2015-03-07T09:01:12.035Z,102082
2015-03-07T09:01:24.037Z,102084
2015-03-07T09:01:36.079Z,102087
2015-03-07T09:01:48.089Z,102084
2015-03-07T09:02:00.021Z,102079
2015-03-07T09:02:11.974Z,102093
2015-03-07T09:02:23.929Z,102090
2015-03-07T09:02:35.976Z,102087
2015-03-07T09:02:47.918Z,102084
2015-03-07T09:02:59.856Z,102087
2015-03-07T09:03:11.826Z,102082
2015-03-07T09:03:23.808Z,102073
2015-03-07T09:03:35.752Z,102093
2015-03-07T09:03:47.783Z,102090
2015-03-07T09:03:59.705Z,102079
2015-03-07T09:04:11.661Z,102084
2015-03-07T09:04:23.671Z,102084
2015-03-07T09:04:35.647Z,102082
2015-03-07T09:04:54.251Z,102085
2015-03-07T09:05:06.247Z,102082
2015-03-07T09:05:18.285Z,102085
2015-03-07T09:05:30.297Z,102073
2015-03-07T09:05:42.400Z,102090
2015-03-07T09:05:54.403Z,102076
2015-03-07T09:06:06.434Z,102090
2015-03-07T09:06:18.416Z,102087
2015-03-07T09:06:30.489Z,102082
2015-03-07T09:06:42.599Z,102076
2015-03-07T09:06:54.612Z,102090
2015-03-07T09:07:06.641Z,102085
2015-03-07T09:07:18.712Z,102082
2015-03-07T09:07:30.732Z,102079
2015-03-07T09:07:49.409Z,102082
2015-03-07T09:08:14.728Z,102079
2015-03-07T09:08:26.762Z,102102
2015-03-07T09:08:38.810Z,102087
2015-03-07T09:08:57.457Z,102079
2015-03-07T09:09:09.458Z,102079
2015-03-07T09:09:21.469Z,102093
2015-03-07T09:09:33.482Z,102088
2015-03-07T09:09:52.148Z,102085
2015-03-07T09:10:04.133Z,102088
2015-03-07T09:10:16.216Z,102093
2015-03-07T09:10:28.255Z,102096
2015-03-07T09:10:40.282Z,102079
2015-03-07T09:10:58.949Z,102090
2015-03-07T09:11:11.254Z,102096
2015-03-07T09:11:29.895Z,102088
2015-03-07T09:11:41.935Z,102082
2015-03-07T09:11:53.984Z,102090
2015-03-07T09:12:07.012Z,102096
2015-03-07T09:12:19.024Z,102088
2015-03-07T09:12:31.017Z,102085
2015-03-07T09:12:43.042Z,102082
2015-03-07T09:12:55.092Z,102082
2015-03-07T09:13:13.763Z,102088
2015-03-07T09:13:25.816Z,102076
2015-03-07T09:13:37.878Z,102085
2015-03-07T09:13:49.959Z,102088
2015-03-07T09:14:02.021Z,102088
2015-03-07T09:14:20.669Z,102085
2015-03-07T09:14:32.646Z,102079
2015-03-07T09:14:44.719Z,102082
2015-03-07T09:14:56.766Z,102085
2015-03-07T09:15:08.833Z,102085
2015-03-07T09:15:20.870Z,102085
2015-03-07T09:15:32.941Z,102082
2015-03-07T09:15:45.004Z,102082
2015-03-07T09:15:57.063Z,102091
2015-03-07T09:16:09.039Z,102085
2015-03-07T09:16:21.015Z,102085
2015-03-07T09:16:33.025Z,102094
2015-03-07T09:16:45.109Z,102085
2015-03-07T09:16:57.111Z,102079
2015-03-07T09:17:09.170Z,102082
2015-03-07T09:17:27.830Z,102076
2015-03-07T09:17:39.816Z,102085
2015-03-07T09:17:51.913Z,102079
2015-03-07T09:18:03.956Z,102088
2015-03-07T09:18:15.932Z,102088
2015-03-07T09:18:34.592Z,102094
2015-03-07T09:18:59.747Z,102094
2015-03-07T09:19:11.754Z,102088
2015-03-07T09:19:30.391Z,102097
2015-03-07T09:19:42.422Z,102094
2015-03-07T09:19:54.473Z,102091
2015-03-07T09:20:06.558Z,102088
2015-03-07T09:20:18.639Z,102094
2015-03-07T09:20:30.702Z,102091
2015-03-07T09:20:42.748Z,102094
2015-03-07T09:20:54.818Z,102097
2015-03-07T09:21:59.414Z,102091
2015-03-07T09:22:11.510Z,102097
2015-03-07T09:22:23.554Z,102088
2015-03-07T09:22:35.628Z,102086
2015-03-07T09:22:47.612Z,102100
2015-03-07T09:22:59.638Z,102083
2015-03-07T09:23:11.639Z,102091
2015-03-07T09:23:23.710Z,102097
2015-03-07T09:23:35.768Z,102091
2015-03-07T09:24:01.061Z,102094
2015-03-07T09:24:13.181Z,102094
2015-03-07T09:24:25.203Z,102092
2015-03-07T09:24:37.303Z,102103
2015-03-07T09:24:49.366Z,102097
2015-03-07T09:25:01.437Z,102100
2015-03-07T09:25:13.476Z,102097
2015-03-07T09:25:25.603Z,102089
2015-03-07T09:25:37.639Z,102100
2015-03-07T09:25:56.322Z,102092
2015-03-07T09:26:08.422Z,102097
2015-03-07T09:26:20.508Z,102097
2015-03-07T09:26:32.500Z,102103
2015-03-07T09:26:44.587Z,102094
2015-03-07T09:26:56.653Z,102094
2015-03-07T09:27:08.669Z,102094
2015-03-07T09:27:20.744Z,102106
2015-03-07T09:27:32.793Z,102100
2015-03-07T09:27:44.808Z,102097
2015-03-07T09:27:56.866Z,102094
2015-03-07T09:28:08.952Z,102100
2015-03-07T09:28:20.995Z,102100
2015-03-07T09:28:33.059Z,102089
2015-03-07T09:28:45.117Z,102094
2015-03-07T09:28:57.117Z,102100
2015-03-07T09:30:13.204Z,102106
2015-03-07T09:30:25.229Z,102097
2015-03-07T09:30:37.270Z,102103
2015-03-07T09:30:49.273Z,102097
2015-03-07T09:31:01.278Z,102097
2015-03-07T09:31:13.283Z,102103
2015-03-07T09:31:25.311Z,102100
2015-03-07T09:31:37.292Z,102094
2015-03-07T09:31:49.391Z,102097
2015-03-07T09:32:01.439Z,102097
2015-03-07T09:32:26.718Z,102097
2015-03-07T09:32:45.354Z,102103
2015-03-07T09:32:57.361Z,102094
2015-03-07T09:33:09.402Z,102103
2015-03-07T09:33:21.419Z,102106
2015-03-07T09:33:33.448Z,102115
2015-03-07T09:33:45.509Z,102106
2015-03-07T09:33:57.532Z,102100
2015-03-07T09:34:09.548Z,102112
2015-03-07T09:34:21.623Z,102103
2015-03-07T09:34:33.623Z,102103
2015-03-07T09:34:45.671Z,102109
2015-03-07T09:34:57.758Z,102103
2015-03-07T09:35:09.751Z,102115
2015-03-07T09:35:21.845Z,102112
2015-03-07T09:35:33.976Z,102115
2015-03-07T09:35:46.096Z,102103
2015-03-07T09:35:58.074Z,102097
2015-03-07T09:36:10.071Z,102109
2015-03-07T09:36:22.194Z,102100
2015-03-07T09:36:34.248Z,102094
2015-03-07T09:36:46.343Z,102103
2015-03-07T09:36:58.443Z,102103
2015-03-07T09:37:10.529Z,102097
2015-03-07T09:37:22.556Z,102100
2015-03-07T09:37:34.614Z,102100
2015-03-07T09:37:46.661Z,102106
2015-03-07T09:37:58.638Z,102100
2015-03-07T09:38:10.677Z,102094
2015-03-07T09:38:22.657Z,102103
2015-03-07T09:38:41.345Z,102109
2015-03-07T09:38:53.353Z,102103
2015-03-07T09:39:11.929Z,102103
2015-03-07T09:39:23.968Z,102097
2015-03-07T09:39:35.967Z,102100
2015-03-07T09:39:54.544Z,102106
2015-03-07T09:40:06.560Z,102103
2015-03-07T09:40:18.623Z,102094
2015-03-07T09:40:30.658Z,102109
2015-03-07T09:40:49.216Z,102103
2015-03-07T09:41:01.178Z,102097
2015-03-07T09:41:13.115Z,102109
2015-03-07T09:41:25.147Z,102109
2015-03-07T09:41:37.141Z,102103
2015-03-07T09:41:49.763Z,102103
2015-03-07T09:42:01.732Z,102109
2015-03-07T09:42:13.678Z,102114
2015-03-07T09:42:25.726Z,102109
2015-03-07T09:42:44.331Z,102109
2015-03-07T09:42:56.391Z,102109
2015-03-07T09:43:08.406Z,102103
2015-03-07T09:43:20.345Z,102112
2015-03-07T09:43:32.306Z,102114
2015-03-07T09:43:50.886Z,102111
2015-03-07T09:44:02.940Z,102097
2015-03-07T09:44:14.956Z,102106
2015-03-07T09:44:26.994Z,102106
2015-03-07T09:44:45.711Z,102120
2015-03-07T09:44:57.698Z,102106
2015-03-07T09:45:09.691Z,102128
2015-03-07T09:45:28.267Z,102114
2015-03-07T09:45:40.278Z,102120
2015-03-07T09:45:52.259Z,102109
2015-03-07T09:46:04.249Z,102111
2015-03-07T09:46:16.275Z,102128
2015-03-07T09:46:28.311Z,102117
2015-03-07T09:46:40.343Z,102117
2015-03-07T09:46:58.953Z,102114
2015-03-07T09:47:10.968Z,102120
2015-03-07T09:47:22.976Z,102117
2015-03-07T09:47:34.917Z,102109
2015-03-07T09:47:46.929Z,102120
2015-03-07T09:47:58.929Z,102125
2015-03-07T09:48:10.842Z,102111
2015-03-07T09:48:22.828Z,102128
2015-03-07T09:48:34.730Z,102128
2015-03-07T09:49:49.426Z,102120
2015-03-07T09:50:01.451Z,102114
2015-03-07T09:50:13.387Z,102120
2015-03-07T09:50:25.293Z,102103
2015-03-07T09:50:37.288Z,102108
2015-03-07T09:50:49.251Z,102117
2015-03-07T09:51:01.215Z,102125
2015-03-07T09:51:13.176Z,102117
2015-03-07T09:51:25.125Z,102114
2015-03-07T09:51:37.098Z,102117
2015-03-07T09:51:49.116Z,102111
2015-03-07T09:52:01.110Z,102114
2015-03-07T09:52:13.129Z,102103
2015-03-07T09:52:31.735Z,102114
2015-03-07T09:52:50.330Z,102114
2015-03-07T09:53:08.912Z,102128
2015-03-07T09:53:20.840Z,102106
2015-03-07T09:53:32.787Z,102117
2015-03-07T09:53:44.833Z,102114
2015-03-07T09:54:03.456Z,102114
2015-03-07T09:54:15.434Z,102120
2015-03-07T09:54:27.399Z,102111
2015-03-07T09:54:39.450Z,102111
2015-03-07T09:54:51.402Z,102105
2015-03-07T09:55:03.374Z,102111
2015-03-07T09:55:15.427Z,102111
2015-03-07T09:55:27.436Z,102111
2015-03-07T09:55:39.471Z,102114
2015-03-07T09:55:58.098Z,102103
2015-03-07T09:56:16.674Z,102108
2015-03-07T09:56:28.635Z,102100
2015-03-07T09:56:40.603Z,102114
2015-03-07T09:56:52.559Z,102111
2015-03-07T09:57:04.552Z,102108
2015-03-07T09:57:16.590Z,102114
2015-03-07T09:57:28.548Z,102111
2015-03-07T09:57:40.573Z,102103
2015-03-07T09:57:59.197Z,102105
2015-03-07T09:58:11.230Z,102114
2015-03-07T09:58:23.252Z,102108
2015-03-07T09:58:35.164Z,102103
2015-03-07T09:58:47.179Z,102100
2015-03-07T09:59:12.429Z,102105